Time;durP1;ratioP1;P1;durP2;ratioP2;P2;SDS_P1;SDS_P2;PMS_P1;PMS_P2;Temp;Humidity;BMP_temperature;BMP_pressure;BME280_temperature;BME280_humidity;BME280_pressure;Samples;Min_cycle;Max_cycle;Signal;HPM_P1;HPM_P2
2021/11/20 00:00:34;;;;;;;2.72;1.30;;;;;;;8.11;89.81;98457.09;1668627;86;21471;-69
2021/11/20 00:03:01;;;;;;;2.77;1.30;;;;;;;8.12;89.90;98452.73;1672006;84;21087;-69
2021/11/20 00:05:33;;;;;;;2.60;1.85;;;;;;;8.16;89.93;98447.55;1699238;84;21056;-69
2021/11/20 00:08:00;;;;;;;4.22;1.62;;;;;;;8.18;89.94;98438.05;1689938;84;21041;-69
2021/11/20 00:10:30;;;;;;;2.12;1.70;;;;;;;8.21;89.92;98439.37;1674978;84;21037;-69
2021/11/20 00:12:56;;;;;;;2.47;1.60;;;;;;;8.24;89.96;98437.44;1714548;82;21054;-69
2021/11/20 00:15:30;;;;;;;2.45;1.95;;;;;;;8.25;89.97;98437.16;1744208;82;21058;-69
2021/11/20 00:17:57;;;;;;;3.98;2.00;;;;;;;8.30;89.94;98428.17;1740377;82;21014;-68
2021/11/20 00:20:25;;;;;;;2.67;1.80;;;;;;;8.33;89.92;98434.37;1724963;82;21038;-68
2021/11/20 00:22:52;;;;;;;3.20;1.87;;;;;;;8.35;89.92;98422.16;1734858;82;21061;-68
2021/11/20 00:25:28;;;;;;;3.87;2.27;;;;;;;8.37;89.93;98424.02;1729202;82;20986;-68
2021/11/20 00:27:58;;;;;;;3.27;2.20;;;;;;;8.42;89.95;98414.48;1738507;81;21038;-69
2021/11/20 00:30:30;;;;;;;3.30;2.20;;;;;;;8.45;89.95;98412.55;1741644;82;21027;-70
2021/11/20 00:33:05;;;;;;;4.17;2.17;;;;;;;8.49;89.92;98413.59;1727427;82;21070;-69
2021/11/20 00:35:39;;;;;;;3.08;2.30;;;;;;;8.51;89.94;98414.63;1731362;82;21458;-67
2021/11/20 00:38:07;;;;;;;4.33;2.90;;;;;;;8.54;89.96;98413.27;1735525;82;21078;-67
2021/11/20 00:40:45;;;;;;;4.85;2.98;;;;;;;8.60;90.01;98404.77;1735920;82;21018;-68
2021/11/20 00:43:14;;;;;;;3.72;2.70;;;;;;;8.63;90.04;98391.98;1725266;82;21117;-67
2021/11/20 00:45:40;;;;;;;4.17;3.00;;;;;;;8.68;90.04;98400.03;1734940;82;21011;-68
2021/11/20 00:48:07;;;;;;;;;;;;;;;8.72;90.07;98386.69;1726320;82;21062;-68
2021/11/20 00:50:36;;;;;;;3.77;2.80;;;;;;;8.75;90.10;98378.77;1726312;82;20136;-68
2021/11/20 00:53:03;;;;;;;4.17;3.05;;;;;;;8.75;90.17;98381.48;1734600;82;20964;-68
2021/11/20 00:55:29;;;;;;;4.17;3.20;;;;;;;8.77;90.24;98368.45;1752476;82;20996;-68
2021/11/20 00:57:58;;;;;;;4.03;3.17;;;;;;;8.81;90.18;98368.13;1746241;81;21610;-67
2021/11/20 01:00:29;;;;;;;4.42;3.40;;;;;;;8.86;90.17;98354.47;1745900;82;20995;-68
2021/11/20 01:02:56;;;;;;;5.50;3.17;;;;;;;8.90;90.10;98353.33;1752336;82;21015;-67
2021/11/20 01:05:23;;;;;;;5.15;3.40;;;;;;;8.94;90.06;98361.14;1750117;82;20947;-68
2021/11/20 01:07:49;;;;;;;4.75;3.45;;;;;;;8.97;90.07;98341.55;1742400;82;21525;-68
2021/11/20 01:10:20;;;;;;;4.17;3.30;;;;;;;9.00;90.03;98337.70;1728639;82;20991;-68
2021/11/20 01:12:47;;;;;;;6.22;3.85;;;;;;;9.03;90.01;98336.33;1742956;82;21011;-67
2021/11/20 01:15:19;;;;;;;4.17;3.60;;;;;;;9.04;90.00;98328.96;1745374;82;21524;-68
2021/11/20 01:17:48;;;;;;;6.12;3.80;;;;;;;9.06;89.95;98333.56;1751898;82;21050;-68
2021/11/20 01:20:15;;;;;;;6.03;3.80;;;;;;;9.08;89.99;98329.98;1750847;82;21537;-68
2021/11/20 01:22:43;;;;;;;4.53;3.60;;;;;;;9.11;90.01;98324.77;1727923;82;21010;-67
2021/11/20 01:25:15;;;;;;;5.83;3.95;;;;;;;9.15;90.03;98312.77;1708555;82;21038;-67
2021/11/20 01:27:56;;;;;;;6.55;4.10;;;;;;;9.18;90.03;98309.45;1733437;82;21637;-68
2021/11/20 01:30:42;;;;;;;4.53;3.98;;;;;;;9.20;90.06;98299.94;1730861;82;20983;-67
2021/11/20 01:33:10;;;;;;;5.85;3.87;;;;;;;9.26;90.13;98290.59;1723449;82;21079;-67
2021/11/20 01:35:36;;;;;;;;;;;;;;;9.28;90.15;98279.44;1738970;82;20995;-68
2021/11/20 01:38:05;;;;;;;5.17;3.90;;;;;;;9.33;90.17;98277.43;1720090;82;20111;-68
2021/11/20 01:40:36;;;;;;;4.53;3.70;;;;;;;9.32;90.28;98278.53;1717246;82;21020;-67
2021/11/20 01:43:04;;;;;;;4.83;3.72;;;;;;;9.36;90.33;98275.47;1731625;82;21043;-67
2021/11/20 01:45:40;;;;;;;5.78;3.85;;;;;;;9.39;90.30;98266.72;1741022;81;21562;-67
2021/11/20 01:48:44;;;;;;;5.62;3.98;;;;;;;9.41;90.28;98257.73;1723446;81;21605;-68
2021/11/20 01:51:19;;;;;;;4.10;3.35;;;;;;;9.43;90.27;98259.59;1709829;82;21040;-68
2021/11/20 01:53:57;;;;;;;5.00;4.00;;;;;;;9.45;90.34;98255.23;1735002;82;21051;-68
2021/11/20 01:56:49;;;;;;;5.15;3.65;;;;;;;9.47;90.38;98248.38;1728548;82;21495;-68
2021/11/20 01:59:27;;;;;;;4.67;3.50;;;;;;;9.50;90.48;98236.91;1719908;82;21036;-68
2021/11/20 02:02:40;;;;;;;5.08;3.33;;;;;;;9.56;90.54;98229.48;1709670;82;21075;-68
2021/11/20 02:05:44;;;;;;;4.60;3.10;;;;;;;9.60;90.62;98227.75;1719715;82;21085;-67
2021/11/20 02:08:42;;;;;;;4.33;3.08;;;;;;;9.66;90.63;98225.76;1735262;82;21051;-67
2021/11/20 02:11:15;;;;;;;3.15;2.50;;;;;;;9.72;90.68;98215.84;1617854;86;21121;-67
2021/11/20 02:13:42;;;;;;;3.33;2.52;;;;;;;9.76;90.63;98213.32;1689146;84;21060;-68
2021/11/20 02:16:22;;;;;;;4.03;2.90;;;;;;;9.79;90.53;98227.66;1712457;82;20980;-67
2021/11/20 02:18:55;;;;;;;3.83;2.22;;;;;;;9.84;90.48;98224.84;1734527;82;21008;-68
2021/11/20 02:21:50;;;;;;;3.33;2.30;;;;;;;9.86;90.36;98227.51;1738170;82;21078;-68
2021/11/20 02:24:16;;;;;;;3.90;2.22;;;;;;;9.90;90.28;98224.98;1708013;82;21598;-67
2021/11/20 02:33:38;;;;;;;3.83;2.30;;;;;;;9.79;90.77;98206.73;1809944;78;22870;-63
2021/11/20 02:36:21;;;;;;;3.35;2.40;;;;;;;9.76;90.95;98212.77;1741627;80;21077;-64
2021/11/20 02:39:03;;;;;;;4.47;2.30;;;;;;;9.88;90.71;98216.34;1758544;80;21037;-64
2021/11/20 02:41:33;;;;;;;4.92;2.17;;;;;;;9.94;90.34;98208.33;1766065;80;21546;-63
2021/11/20 02:44:03;;;;;;;3.60;2.30;;;;;;;9.97;90.14;98202.27;1793269;80;21501;-64
2021/11/20 02:46:33;;;;;;;3.42;2.20;;;;;;;10.00;89.98;98201.66;1755427;80;21058;-61
2021/11/20 02:49:00;;;;;;;2.62;1.92;;;;;;;10.04;89.83;98214.90;1765662;80;20971;-61
2021/11/20 02:51:31;;;;;;;3.35;2.27;;;;;;;10.08;89.72;98210.47;1765085;80;21047;-61
2021/11/20 02:54:02;;;;;;;4.17;2.10;;;;;;;10.12;89.54;98212.83;1775343;80;20998;-60
2021/11/20 02:56:33;;;;;;;3.15;1.95;;;;;;;10.16;89.37;98204.90;1789807;79;21145;-60
2021/11/20 02:59:01;;;;;;;3.50;1.95;;;;;;;10.21;89.19;98204.77;1784828;80;21002;-61
2021/11/20 03:01:35;;;;;;;3.62;1.98;;;;;;;10.24;88.99;98206.87;1759702;80;21039;-63
2021/11/20 03:04:04;;;;;;;2.75;1.70;;;;;;;10.25;88.88;98197.61;1767407;80;20951;-64
2021/11/20 03:06:32;;;;;;;2.72;1.60;;;;;;;10.24;88.73;98206.87;1776273;80;21026;-64
2021/11/20 03:08:59;;;;;;;2.60;1.80;;;;;;;10.22;88.65;98203.11;1754970;80;20980;-61
2021/11/20 03:11:26;;;;;;;3.25;1.82;;;;;;;10.20;88.58;98205.31;1791717;80;21014;-61
2021/11/20 03:13:54;;;;;;;;;;;;;;;10.19;88.62;98209.72;1792313;80;20975;-61
2021/11/20 03:16:24;;;;;;;3.85;2.00;;;;;;;10.19;88.68;98196.13;1794949;80;20392;-61
2021/11/20 03:18:51;;;;;;;3.35;1.90;;;;;;;10.14;88.84;98196.19;1780261;80;20973;-62
2021/11/20 03:21:18;;;;;;;2.55;1.80;;;;;;;10.14;88.89;98194.83;1748034;80;21030;-61
2021/11/20 03:23:50;;;;;;;2.45;1.70;;;;;;;10.18;88.90;98198.58;1781840;80;21010;-61
2021/11/20 03:26:16;;;;;;;3.08;1.72;;;;;;;10.21;88.82;98198.78;1760610;80;21030;-61
2021/11/20 03:28:42;;;;;;;3.42;1.70;;;;;;;10.24;88.73;98194.63;1760141;80;21042;-60
2021/11/20 03:31:09;;;;;;;;;;;;;;;10.25;88.61;98197.05;1773628;80;21026;-60
2021/11/20 03:33:35;;;;;;;3.37;1.57;;;;;;;10.31;88.49;98205.34;1781264;80;20131;-60
2021/11/20 03:36:03;;;;;;;2.62;1.40;;;;;;;10.31;88.40;98198.54;1769893;80;21086;-61
2021/11/20 03:41:10;;;;;;;2.90;1.62;;;;;;;10.37;87.96;98204.69;1785894;79;22453;-70
2021/11/20 03:43:37;;;;;;;2.85;1.27;;;;;;;10.28;88.04;98181.48;1750918;80;21572;-70
2021/11/20 03:46:04;;;;;;;;;;;;;;;10.35;87.76;98172.34;1765873;81;21628;-71
2021/11/20 03:48:32;;;;;;;2.70;1.22;;;;;;;10.40;87.33;98189.11;1764437;80;20099;-71
2021/11/20 03:50:59;;;;;;;2.67;1.50;;;;;;;10.39;87.09;98197.02;1771250;80;21571;-70
2021/11/20 03:53:26;;;;;;;4.15;1.67;;;;;;;10.43;86.74;98193.38;1794451;80;21584;-70
2021/11/20 03:55:54;;;;;;;3.50;1.75;;;;;;;10.48;86.32;98197.35;1794168;80;21572;-70
2021/11/20 03:58:21;;;;;;;2.87;1.57;;;;;;;10.52;85.93;98199.45;1795675;80;21548;-71
2021/11/20 04:00:54;;;;;;;4.22;1.75;;;;;;;10.55;85.63;98202.36;1775995;80;20998;-70
2021/11/20 04:03:21;;;;;;;4.08;1.60;;;;;;;10.55;85.35;98218.69;1767459;80;21027;-70
2021/11/20 04:05:51;;;;;;;3.52;1.60;;;;;;;10.55;85.11;98200.19;1769074;80;21074;-71
2021/11/20 04:08:20;;;;;;;6.95;2.00;;;;;;;10.56;84.86;98193.64;1765502;80;21580;-72
2021/11/20 04:10:50;;;;;;;3.52;1.75;;;;;;;10.55;84.63;98201.00;1764319;80;22039;-71
2021/11/20 04:13:17;;;;;;;6.45;1.90;;;;;;;10.54;84.43;98202.10;1762618;80;21117;-71
2021/11/20 04:15:44;;;;;;;3.22;1.90;;;;;;;10.55;84.23;98209.72;1774510;80;21027;-71
2021/11/20 04:18:11;;;;;;;3.42;1.57;;;;;;;10.55;84.06;98209.16;1782444;80;21037;-72
2021/11/20 04:20:37;;;;;;;3.15;1.60;;;;;;;10.53;83.83;98210.01;1773882;80;21065;-71
2021/11/20 04:23:05;;;;;;;3.72;1.50;;;;;;;10.53;83.67;98214.64;1774952;80;21623;-73
2021/11/20 04:25:33;;;;;;;5.78;1.70;;;;;;;10.56;83.36;98201.22;1740802;81;21469;-73
2021/11/20 04:28:00;;;;;;;4.60;1.60;;;;;;;10.61;83.04;98204.39;1766447;80;21113;-72
2021/11/20 04:30:28;;;;;;;3.58;1.52;;;;;;;10.63;82.67;98213.84;1787823;80;21936;-73
2021/11/20 04:32:55;;;;;;;3.40;1.35;;;;;;;10.65;82.29;98221.72;1787823;80;21109;-73
2021/11/20 04:35:24;;;;;;;3.25;1.25;;;;;;;10.66;82.00;98226.05;1780504;80;21090;-73
2021/11/20 04:37:51;;;;;;;4.15;1.62;;;;;;;10.69;81.66;98228.16;1767997;80;21097;-73
2021/11/20 04:40:19;;;;;;;3.90;1.55;;;;;;;10.70;81.40;98213.44;1791134;80;21074;-72
2021/11/20 04:42:46;;;;;;;3.30;1.57;;;;;;;10.71;81.05;98224.00;1758945;80;21028;-72
2021/11/20 04:45:16;;;;;;;4.22;1.72;;;;;;;10.71;80.77;98214.47;1783898;80;21596;-72
2021/11/20 04:47:44;;;;;;;5.90;1.77;;;;;;;10.67;80.73;98226.28;1740001;81;21593;-73
2021/11/20 04:50:13;;;;;;;4.40;1.80;;;;;;;10.65;80.60;98225.24;1766188;80;21046;-72
2021/11/20 04:52:40;;;;;;;5.87;1.67;;;;;;;10.64;80.48;98234.51;1712713;83;21573;-72
2021/11/20 04:55:08;;;;;;;4.12;1.75;;;;;;;10.66;80.41;98223.33;1709698;83;21047;-72
2021/11/20 04:57:36;;;;;;;4.05;1.65;;;;;;;10.66;80.34;98223.33;1707747;83;21062;-72
2021/11/20 05:00:17;;;;;;;4.30;1.90;;;;;;;10.66;80.23;98221.97;1687536;84;21123;-72
2021/11/20 05:02:45;;;;;;;5.87;1.85;;;;;;;10.66;80.14;98221.97;1706565;82;21974;-72
2021/11/20 05:05:14;;;;;;;6.00;1.67;;;;;;;10.63;80.13;98230.17;1726142;83;21536;-72
2021/11/20 05:07:41;;;;;;;5.03;1.70;;;;;;;10.61;80.14;98223.44;1704433;84;21151;-72
2021/11/20 05:10:10;;;;;;;4.08;1.70;;;;;;;10.61;80.03;98229.69;1707164;83;21121;-72
2021/11/20 05:12:37;;;;;;;4.85;1.60;;;;;;;10.61;79.96;98234.32;1748460;82;21585;-73
2021/11/20 05:15:06;;;;;;;5.22;1.92;;;;;;;10.61;79.83;98235.69;1722324;83;21555;-72
2021/11/20 05:17:33;;;;;;;3.77;1.45;;;;;;;10.62;79.62;98243.55;1709071;84;21581;-72
2021/11/20 05:20:00;;;;;;;4.87;1.67;;;;;;;10.63;79.40;98247.86;1722397;83;21588;-73
2021/11/20 05:22:27;;;;;;;5.55;1.55;;;;;;;10.57;79.31;98246.93;1710362;83;21042;-72
2021/11/20 05:24:55;;;;;;;4.37;1.47;;;;;;;10.58;79.13;98256.16;1709937;82;21038;-72
2021/11/20 05:27:21;;;;;;;3.77;1.40;;;;;;;10.59;78.85;98255.61;1711728;82;21007;-73
2021/11/20 05:30:04;;;;;;;5.72;1.77;;;;;;;10.60;78.60;98267.53;1707412;82;21111;-72
2021/11/20 05:32:23;;;;;;;3.22;1.62;;;;;;;10.63;78.28;98264.77;1703572;83;21604;-72
2021/11/20 05:34:50;;;;;;;3.47;1.47;;;;;;;10.63;78.13;98275.07;1721539;82;21050;-71
2021/11/20 05:37:17;;;;;;;3.60;1.50;;;;;;;10.62;77.98;98274.84;1724221;82;21010;-72
2021/11/20 05:39:44;;;;;;;4.45;1.60;;;;;;;10.63;77.91;98278.37;1702495;84;21500;-72
2021/11/20 05:42:10;;;;;;;3.87;1.30;;;;;;;10.58;77.89;98289.36;1669362;84;21015;-72
2021/11/20 05:44:38;;;;;;;4.37;1.45;;;;;;;10.58;77.86;98296.16;1701048;84;21102;-72
2021/11/20 05:47:07;;;;;;;3.45;1.22;;;;;;;10.58;77.77;98302.42;1679257;84;21474;-72
2021/11/20 05:49:39;;;;;;;4.15;1.70;;;;;;;10.61;77.71;98300.99;1670222;84;21046;-72
2021/11/20 05:52:07;;;;;;;4.53;1.57;;;;;;;10.61;77.63;98295.55;1690409;84;20998;-72
2021/11/20 05:54:36;;;;;;;4.50;1.45;;;;;;;10.61;77.55;98307.80;1700479;84;21042;-72
2021/11/20 05:57:05;;;;;;;6.15;1.90;;;;;;;10.61;77.36;98299.63;1677513;84;21018;-72
2021/11/20 05:59:32;;;;;;;5.37;1.80;;;;;;;10.63;77.25;98300.92;1695878;84;21138;-72
2021/11/20 06:01:59;;;;;;;6.20;2.08;;;;;;;10.63;77.05;98294.70;1680954;84;21493;-73
2021/11/20 06:04:29;;;;;;;5.03;1.67;;;;;;;10.58;77.09;98302.42;1676521;84;21117;-73
2021/11/20 06:06:59;;;;;;;5.70;1.57;;;;;;;10.60;76.98;98300.73;1686381;84;21031;-72
2021/11/20 06:09:25;;;;;;;4.35;1.47;;;;;;;10.62;76.80;98303.42;1693017;84;21123;-72
2021/11/20 06:11:52;;;;;;;5.72;2.02;;;;;;;10.62;76.60;98290.36;1680590;84;21032;-72
2021/11/20 06:14:18;;;;;;;6.08;1.57;;;;;;;10.59;76.54;98307.31;1679118;84;21061;-72
2021/11/20 06:16:45;;;;;;;4.87;1.62;;;;;;;10.60;76.36;98285.77;1698752;84;21030;-72
2021/11/20 06:19:12;;;;;;;4.72;1.72;;;;;;;10.61;76.11;98296.91;1703944;84;21094;-71
2021/11/20 06:21:40;;;;;;;6.15;1.80;;;;;;;10.62;75.90;98286.28;1703543;84;21031;-71
2021/11/20 06:24:07;;;;;;;5.40;1.80;;;;;;;10.56;75.76;98294.31;1696366;84;21122;-71
2021/11/20 06:26:34;;;;;;;4.53;1.60;;;;;;;10.52;75.71;98300.93;1698569;84;21088;-71
2021/11/20 06:29:03;;;;;;;7.95;1.87;;;;;;;10.55;75.50;98300.86;1696939;82;21046;-71
2021/11/20 06:31:30;;;;;;;5.17;2.12;;;;;;;10.58;75.36;98293.44;1652872;84;21053;-71
2021/11/20 06:38:36;;;;;;;6.17;1.90;;;;;;;10.49;75.41;98296.07;1803595;78;22734;-60
2021/11/20 06:41:04;;;;;;;5.97;2.42;;;;;;;10.45;75.62;98295.88;1740430;80;21580;-60
2021/11/20 06:43:31;;;;;;;6.37;1.90;;;;;;;10.57;74.90;98304.88;1734246;82;21537;-60
2021/11/20 06:46:02;;;;;;;6.35;2.15;;;;;;;10.70;74.42;98303.25;1752664;82;21043;-60
2021/11/20 06:48:30;;;;;;;5.75;1.95;;;;;;;10.78;73.93;98292.97;1728326;82;21054;-61
2021/11/20 06:51:10;;;;;;;5.80;2.05;;;;;;;10.88;73.51;98290.01;1721725;82;21058;-60
2021/11/20 06:53:55;;;;;;;9.20;2.05;;;;;;;11.02;72.78;98305.73;1735087;82;21549;-60
2021/11/20 06:56:43;;;;;;;6.70;2.10;;;;;;;11.09;72.31;98307.47;1723471;82;21079;-60
2021/11/20 07:01:52;;;;;;;5.50;1.80;;;;;;;11.26;71.31;98313.06;1676506;85;21062;-60
2021/11/20 07:04:23;;;;;;;5.80;1.62;;;;;;;11.34;70.98;98296.50;1712239;84;21027;-60
2021/11/20 07:07:01;;;;;;;7.83;2.00;;;;;;;11.40;70.49;98315.71;1707989;84;20990;-60
2021/11/20 07:09:29;;;;;;;6.00;2.20;;;;;;;11.43;69.80;98305.55;1690563;84;21345;-60
2021/11/20 07:11:57;;;;;;;5.53;1.90;;;;;;;11.54;69.47;98311.54;1695581;82;21428;-60
2021/11/20 07:14:25;;;;;;;7.20;2.12;;;;;;;11.66;68.92;98298.92;1703599;84;20995;-60
2021/11/20 07:16:53;;;;;;;6.40;1.95;;;;;;;11.72;68.39;98295.55;1685554;85;21048;-60
2021/11/20 07:19:20;;;;;;;7.35;2.00;;;;;;;11.71;68.19;98290.66;1701627;84;21497;-60
2021/11/20 07:22:00;;;;;;;6.28;1.45;;;;;;;11.76;67.84;98306.86;1651567;85;21524;-60
2021/11/20 07:24:31;;;;;;;5.83;1.65;;;;;;;11.90;67.11;98300.75;1688440;83;21014;-60
2021/11/20 07:26:59;;;;;;;7.30;1.92;;;;;;;11.98;66.30;98296.45;1708022;83;21546;-61
2021/11/20 07:29:25;;;;;;;6.85;1.90;;;;;;;11.97;65.71;98312.00;1679252;84;21615;-60
2021/11/20 07:31:56;;;;;;;7.55;2.35;;;;;;;11.94;65.71;98299.56;1688003;85;21016;-60
2021/11/20 07:34:23;;;;;;;9.63;2.35;;;;;;;11.89;65.71;98302.44;1710364;84;21018;-60
2021/11/20 07:36:50;;;;;;;;;;;;;;;11.89;65.06;98299.16;1691502;83;21223;-60
2021/11/20 07:39:16;;;;;;;10.28;2.33;;;;;;;11.95;64.76;98291.63;1702234;84;20126;-60
2021/11/20 07:41:43;;;;;;;;;;;;;;;11.95;64.26;98304.71;1717022;83;21133;-60
2021/11/20 07:44:10;;;;;;;6.40;1.90;;;;;;;11.98;63.96;98319.08;1685444;85;20136;-60
2021/11/20 07:46:38;;;;;;;6.87;1.50;;;;;;;11.86;64.05;98303.08;1684818;84;21090;-60
2021/11/20 07:49:05;;;;;;;7.08;1.65;;;;;;;11.81;64.26;98345.46;1683220;85;21118;-60
2021/11/20 07:51:35;;;;;;;7.40;2.08;;;;;;;11.72;64.51;98335.08;1705236;83;21912;-60
2021/11/20 07:54:03;;;;;;;7.05;1.98;;;;;;;11.64;64.61;98319.45;1675485;85;21518;-60
2021/11/20 07:56:30;;;;;;;6.35;1.65;;;;;;;11.62;64.59;98334.73;1702018;83;21094;-59
2021/11/20 07:58:58;;;;;;;6.55;1.70;;;;;;;11.65;64.38;98334.14;1684031;85;21038;-61
2021/11/20 08:01:26;;;;;;;7.42;2.10;;;;;;;11.72;64.60;98337.81;1694137;84;21577;-61
2021/11/20 08:03:53;;;;;;;6.50;1.87;;;;;;;11.81;64.02;98344.91;1668925;85;21010;-60
2021/11/20 08:06:38;;;;;;;8.13;2.12;;;;;;;11.92;63.18;98333.98;1660752;86;21004;-60
2021/11/20 08:09:06;;;;;;;11.65;2.20;;;;;;;11.97;62.99;98341.23;1685873;84;20951;-60
2021/11/20 08:11:51;;;;;;;8.33;1.90;;;;;;;12.07;62.37;98344.23;1682795;84;20990;-60
2021/11/20 08:14:21;;;;;;;8.03;2.00;;;;;;;12.15;61.41;98346.19;1700917;84;21038;-61
2021/11/20 08:16:50;;;;;;;9.70;2.37;;;;;;;12.15;61.33;98343.47;1700337;83;21063;-60
2021/11/20 08:19:24;;;;;;;9.60;2.42;;;;;;;12.10;60.46;98356.67;1699029;84;20988;-60
2021/11/20 08:22:02;;;;;;;7.62;1.80;;;;;;;12.12;60.59;98354.42;1665945;85;21425;-60
2021/11/20 08:24:30;;;;;;;10.43;2.52;;;;;;;12.16;59.42;98359.50;1690764;84;21075;-60
2021/11/20 08:26:58;;;;;;;9.30;1.90;;;;;;;12.05;59.97;98362.81;1702396;83;21529;-60
2021/11/20 08:29:29;;;;;;;9.73;1.70;;;;;;;12.05;60.31;98362.81;1688665;84;21008;-61
2021/11/20 08:31:54;;;;;;;8.20;2.10;;;;;;;12.07;60.30;98344.23;1690426;83;20981;-61
2021/11/20 08:34:23;;;;;;;8.53;1.77;;;;;;;12.03;59.54;98383.59;1694266;84;21038;-60
2021/11/20 08:37:00;;;;;;;8.08;1.92;;;;;;;11.94;59.86;98350.01;1711540;83;21421;-59
2021/11/20 08:39:33;;;;;;;7.03;2.05;;;;;;;11.85;60.28;98390.08;1702638;84;21162;-61
2021/11/20 08:42:00;;;;;;;7.58;1.90;;;;;;;11.83;59.88;98356.30;1672448;84;20971;-60
2021/11/20 08:44:27;;;;;;;10.05;2.00;;;;;;;11.90;59.47;98381.19;1715513;82;20971;-60
2021/11/20 08:46:56;;;;;;;7.47;1.80;;;;;;;11.90;58.90;98363.47;1738078;82;20952;-61
2021/11/20 08:49:24;;;;;;;6.85;1.92;;;;;;;11.78;58.96;98370.63;1738518;82;21032;-60
2021/11/20 08:51:52;;;;;;;9.65;2.47;;;;;;;11.66;59.26;98367.63;1711157;82;21803;-60
2021/11/20 08:54:20;;;;;;;7.03;1.75;;;;;;;11.58;59.21;98384.20;1708587;82;20963;-61
2021/11/20 08:56:47;;;;;;;7.65;1.90;;;;;;;11.49;58.90;98366.41;1642071;86;20972;-62
2021/11/20 08:59:23;;;;;;;11.83;2.72;;;;;;;11.42;59.29;98358.42;1709525;84;20980;-60
2021/11/20 09:02:09;;;;;;;7.67;2.02;;;;;;;11.38;59.28;98365.05;1659684;86;21462;-61
2021/11/20 09:04:58;;;;;;;11.22;1.95;;;;;;;11.34;59.79;98370.87;1717246;82;20980;-60
2021/11/20 09:07:48;;;;;;;6.70;2.17;;;;;;;11.34;59.58;98366.78;1739144;82;21039;-60
2021/11/20 09:10:43;;;;;;;8.18;1.90;;;;;;;11.33;59.27;98363.02;1739163;82;21024;-59
2021/11/20 09:13:30;;;;;;;8.08;1.98;;;;;;;11.31;59.56;98367.95;1723799;82;21450;-61
2021/11/20 09:16:01;;;;;;;;;;;;;;;11.29;58.72;98354.66;1664396;86;21035;-60
2021/11/20 09:18:29;;;;;;;12.35;2.05;;;;;;;11.24;58.67;98377.92;1670645;86;20125;-61
2021/11/20 09:20:59;;;;;;;11.43;1.77;;;;;;;11.24;58.29;98383.92;1709630;84;20988;-60
2021/11/20 09:23:33;;;;;;;9.18;2.25;;;;;;;11.39;57.75;98387.11;1659834;86;21549;-60
2021/11/20 09:26:04;;;;;;;7.55;2.00;;;;;;;11.48;57.89;98368.88;1709805;84;21957;-60
2021/11/20 09:28:31;;;;;;;7.15;1.72;;;;;;;11.62;57.51;98397.42;1709530;83;21532;-60
2021/11/20 09:31:01;;;;;;;8.28;2.17;;;;;;;11.65;56.50;98363.31;1689709;84;21024;-61
2021/11/20 09:33:29;;;;;;;9.75;2.40;;;;;;;11.66;56.10;98392.97;1639229;86;21046;-61
2021/11/20 09:35:56;;;;;;;7.55;1.67;;;;;;;11.83;56.26;98351.42;1709990;84;21091;-61
2021/11/20 09:38:30;;;;;;;7.78;2.58;;;;;;;12.10;54.54;98362.69;1688708;83;20994;-60
2021/11/20 09:41:16;;;;;;;9.53;1.77;;;;;;;12.20;53.57;98361.84;1695885;84;21061;-60
2021/11/20 09:43:45;;;;;;;8.48;1.72;;;;;;;12.28;52.40;98361.08;1642434;85;21042;-60
2021/11/20 09:46:32;;;;;;;7.70;2.10;;;;;;;12.32;52.50;98332.05;1695808;84;21071;-61
2021/11/20 09:49:08;;;;;;;10.13;2.12;;;;;;;12.37;52.86;98360.53;1695672;84;21081;-61
2021/11/20 09:51:39;;;;;;;15.85;2.60;;;;;;;12.45;52.84;98375.33;1685910;83;21093;-60
2021/11/20 09:54:19;;;;;;;7.37;2.10;;;;;;;12.31;53.04;98364.53;1708701;83;21088;-61
2021/11/20 09:57:02;;;;;;;11.75;2.35;;;;;;;12.15;54.03;98380.29;1725419;83;21046;-61
2021/11/20 09:59:52;;;;;;;8.68;2.25;;;;;;;12.13;54.26;98357.95;1700208;83;21009;-60
2021/11/20 10:02:53;;;;;;;10.25;1.92;;;;;;;12.13;53.92;98368.31;1666442;86;21508;-60
2021/11/20 10:05:37;;;;;;;9.43;2.05;;;;;;;12.05;52.61;98358.16;1687797;84;21030;-60
2021/11/20 10:08:14;;;;;;;7.25;1.87;;;;;;;12.05;51.71;98369.07;1673773;84;21037;-61
2021/11/20 10:10:48;;;;;;;7.37;1.62;;;;;;;12.00;51.65;98361.05;1694203;85;21097;-61
2021/11/20 10:13:25;;;;;;;8.50;2.02;;;;;;;11.88;50.55;98388.89;1722290;83;21022;-61
2021/11/20 10:16:02;;;;;;;8.85;1.87;;;;;;;11.74;51.14;98384.63;1695931;84;21576;-61
2021/11/20 10:18:55;;;;;;;9.10;2.30;;;;;;;11.64;50.85;98378.05;1724748;83;21030;-62
2021/11/20 10:21:57;;;;;;;9.13;2.02;;;;;;;11.60;50.40;98373.78;1680146;84;21009;-61
2021/11/20 10:24:52;;;;;;;7.17;1.62;;;;;;;11.53;51.20;98386.23;1644149;86;21103;-61
2021/11/20 10:31:05;;;;;;;8.58;1.72;;;;;;;11.69;52.93;98393.70;1656975;84;21165;-57
2021/11/20 10:33:38;;;;;;;;;;;;;;;11.88;52.71;98403.08;1663831;84;21105;-61
2021/11/20 10:36:16;;;;;;;10.18;2.10;;;;;;;11.86;52.43;98408.05;1677791;85;20109;-60
2021/11/20 10:38:50;;;;;;;7.12;1.60;;;;;;;11.89;51.09;98404.70;1648279;85;21087;-61
2021/11/20 10:41:46;;;;;;;10.05;2.22;;;;;;;12.03;49.99;98385.52;1674219;85;21088;-61
2021/11/20 10:44:30;;;;;;;7.33;1.67;;;;;;;12.19;49.26;98395.69;1666510;85;21562;-60
2021/11/20 10:47:15;;;;;;;9.00;1.92;;;;;;;12.25;47.75;98393.09;1648188;87;21069;-59
2021/11/20 10:50:22;;;;;;;7.33;2.25;;;;;;;12.22;48.15;98400.52;1675880;85;21677;-60
2021/11/20 10:53:19;;;;;;;6.70;1.55;;;;;;;12.20;46.88;98402.77;1665797;84;21010;-60
2021/11/20 10:56:11;;;;;;;8.77;2.17;;;;;;;12.26;47.27;98377.50;1672174;85;21592;-60
2021/11/20 10:59:06;;;;;;;9.25;1.80;;;;;;;12.22;48.03;98413.38;1672083;85;21008;-60
2021/11/20 11:01:51;;;;;;;8.40;2.17;;;;;;;12.18;48.10;98424.12;1649238;87;21091;-59
2021/11/20 11:05:16;;;;;;;8.63;2.05;;;;;;;12.25;49.13;98410.83;1639088;86;21011;-60
2021/11/20 11:08:08;;;;;;;8.63;1.90;;;;;;;12.25;49.70;98393.65;1649463;87;21108;-60
2021/11/20 11:10:45;;;;;;;10.90;2.33;;;;;;;12.28;50.12;98409.38;1669080;86;21066;-60
2021/11/20 11:13:25;;;;;;;9.45;2.00;;;;;;;12.48;48.19;98435.55;1676082;85;21090;-60
2021/11/20 11:25:53;;;;;;;8.28;2.15;;;;;;;12.57;46.24;98451.97;1816445;77;23445;-69
2021/11/20 11:28:40;;;;;;;8.40;1.92;;;;;;;12.42;46.61;98460.02;1774162;80;21034;-69
2021/11/20 11:31:31;;;;;;;7.78;2.17;;;;;;;12.16;46.84;98467.25;1776961;81;21050;-69
2021/11/20 11:34:25;;;;;;;11.10;2.40;;;;;;;11.86;47.46;98461.22;1777018;80;21355;-68
2021/11/20 11:37:31;;;;;;;11.55;1.98;;;;;;;11.61;46.30;98438.64;1749876;81;21424;-69
2021/11/20 11:40:18;;;;;;;7.67;1.90;;;;;;;11.43;46.22;98443.96;1777845;80;21093;-69
2021/11/20 11:43:24;;;;;;;9.25;2.05;;;;;;;11.40;46.14;98456.03;1728266;81;21544;-69
2021/11/20 11:46:29;;;;;;;9.25;1.87;;;;;;;11.55;45.36;98472.00;1777173;81;20998;-68
2021/11/20 11:49:26;;;;;;;10.25;2.08;;;;;;;11.60;45.35;98450.65;1778418;80;21070;-68
2021/11/20 11:52:26;;;;;;;11.00;2.50;;;;;;;11.64;45.64;98461.19;1777291;81;21022;-68
2021/11/20 11:55:07;;;;;;;8.48;2.37;;;;;;;11.53;46.22;98465.27;1776993;81;21038;-68
2021/11/20 11:58:14;;;;;;;11.55;2.55;;;;;;;11.38;47.27;98465.86;1781525;80;21004;-68
2021/11/20 12:01:03;;;;;;;10.05;1.95;;;;;;;11.37;48.06;98448.48;1791029;80;21088;-69
2021/11/20 12:03:40;;;;;;;7.17;1.90;;;;;;;11.33;48.54;98437.39;1792275;80;21093;-69
2021/11/20 12:06:21;;;;;;;7.25;2.15;;;;;;;11.31;48.48;98455.95;1782057;80;21018;-68
2021/11/20 12:08:59;;;;;;;11.15;2.02;;;;;;;11.28;47.30;98453.03;1775125;81;21073;-69
2021/11/20 12:11:37;;;;;;;8.13;2.20;;;;;;;11.23;46.77;98456.66;1777195;81;21443;-68
2021/11/20 12:14:19;;;;;;;8.38;1.57;;;;;;;11.18;46.69;98452.70;1776784;81;21070;-68
2021/11/20 12:17:03;;;;;;;6.58;1.95;;;;;;;11.13;46.66;98465.06;1788898;80;21524;-68
2021/11/20 12:19:52;;;;;;;7.75;2.05;;;;;;;11.05;46.85;98483.51;1761109;81;21038;-67
2021/11/20 12:22:53;;;;;;;;;;;;;;;10.97;47.13;98481.49;1730384;83;21023;-68
2021/11/20 12:25:49;;;;;;;6.25;2.00;;;;;;;10.95;45.77;98494.59;1715524;83;20502;-66
2021/11/20 12:28:38;;;;;;;8.73;2.00;;;;;;;10.90;46.43;98494.71;1660533;86;21129;-67
2021/11/20 12:31:45;;;;;;;9.08;1.80;;;;;;;10.90;46.83;98498.25;1725122;83;21134;-67
2021/11/20 12:34:49;;;;;;;15.78;2.35;;;;;;;10.94;46.76;98510.70;1725374;83;21030;-67
2021/11/20 12:37:43;;;;;;;10.25;2.17;;;;;;;10.98;47.49;98499.45;1747900;82;20971;-67
2021/11/20 12:40:28;;;;;;;15.23;2.27;;;;;;;10.95;47.88;98502.20;1724549;83;21697;-67